Time,TemperatureF,DewpointF,PressureIn,WindDirection,WindDirectionDegrees,WindSpeedMPH,WindSpeedGustMPH,Humidity,HourlyPrecipIn,Conditions,Clouds,dailyrainin,SoftwareType,DateUTC
2013-10-22 00:57:00,37.0,24.5,29.22,West,270,0.0,0.0,60,0.00,,,0.00,WUHU21623XXSP,2013-10-22 05:57:00,
2013-10-22 01:57:00,37.8,25.6,29.22,West,270,0.0,0.0,61,0.00,,,0.00,WUHU21623XXSP,2013-10-22 06:57:00,
2013-10-22 02:57:00,37.4,25.6,29.21,West,270,0.0,0.0,62,0.00,,,0.00,WUHU21623XXSP,2013-10-22 07:57:00,
2013-10-22 03:57:00,37.8,26.4,29.20,West,270,0.0,0.0,63,0.00,,,0.00,WUHU21623XXSP,2013-10-22 08:57:00,
2013-10-22 04:57:00,38.1,27.1,29.19,West,270,0.0,0.0,64,0.00,,,0.00,WUHU21623XXSP,2013-10-22 09:57:00,
2013-10-22 05:15:00,38.3,27.1,29.19,West,270,0.0,0.0,64,0.00,,,0.00,WUHU21623XXSP,2013-10-22 10:15:00,
2013-10-22 05:16:00,38.3,27.1,29.19,West,270,0.0,0.0,64,0.00,,,0.00,WUHU21623XXSP,2013-10-22 10:16:00,
2013-10-22 05:21:00,38.3,27.5,29.20,West,270,0.0,0.0,65,0.00,,,0.00,WUHU21623XXSP,2013-10-22 10:21:00,
2013-10-22 05:26:00,38.3,27.5,29.19,West,270,0.0,0.0,65,0.00,,,0.00,WUHU21623XXSP,2013-10-22 10:26:00,
2013-10-22 05:31:00,38.5,27.5,29.20,West,270,0.0,0.0,65,0.00,,,0.00,WUHU21623XXSP,2013-10-22 10:31:00,
2013-10-22 05:36:00,38.5,27.7,29.19,West,270,0.0,0.0,65,0.00,,,0.00,WUHU21623XXSP,2013-10-22 10:36:00,
2013-10-22 05:41:00,38.5,27.7,29.19,West,270,0.0,0.0,65,0.00,,,0.00,WUHU21623XXSP,2013-10-22 10:41:00,
2013-10-22 05:46:00,38.5,27.7,29.20,West,270,0.0,0.0,65,0.00,,,0.00,WUHU21623XXSP,2013-10-22 10:46:00,
2013-10-22 05:51:00,38.8,27.8,29.20,West,270,0.0,0.0,65,0.00,,,0.00,WUHU21623XXSP,2013-10-22 10:51:00,
2013-10-22 05:56:00,38.8,28.0,29.20,West,270,0.0,0.0,65,0.00,,,0.00,WUHU21623XXSP,2013-10-22 10:56:00,
2013-10-22 06:01:00,38.8,28.0,29.20,West,270,0.0,0.0,65,0.00,,,0.00,WUHU21623XXSP,2013-10-22 11:01:00,
2013-10-22 06:06:00,39.0,28.1,29.20,West,270,0.0,0.0,65,0.00,,,0.00,WUHU21623XXSP,2013-10-22 11:06:00,
2013-10-22 06:11:00,39.0,28.1,29.20,West,270,0.0,0.0,65,0.00,,,0.00,WUHU21623XXSP,2013-10-22 11:11:00,
2013-10-22 06:16:00,39.0,28.1,29.20,West,270,0.0,0.0,65,0.00,,,0.00,WUHU21623XXSP,2013-10-22 11:16:00,
2013-10-22 06:21:00,39.0,28.5,29.20,West,270,0.0,0.0,66,0.00,,,0.00,WUHU21623XXSP,2013-10-22 11:21:00,
2013-10-22 06:26:00,39.0,28.5,29.20,SE,135,0.0,0.0,66,0.00,,,0.00,WUHU21623XXSP,2013-10-22 11:26:00,
2013-10-22 06:31:00,39.0,28.5,29.20,SE,135,0.0,0.2,66,0.00,,,0.00,WUHU21623XXSP,2013-10-22 11:31:00,
2013-10-22 06:36:00,39.0,28.5,29.20,SE,135,0.0,0.2,66,0.00,,,0.00,WUHU21623XXSP,2013-10-22 11:36:00,
2013-10-22 06:41:00,39.0,28.5,29.19,SE,135,0.0,0.0,66,0.00,,,0.00,WUHU21623XXSP,2013-10-22 11:41:00,
2013-10-22 06:46:00,39.0,28.5,29.19,SE,135,0.0,0.0,66,0.00,,,0.00,WUHU21623XXSP,2013-10-22 11:46:00,
2013-10-22 06:51:00,38.8,28.7,29.19,SE,135,0.0,0.0,67,0.00,,,0.00,WUHU21623XXSP,2013-10-22 11:51:00,
2013-10-22 06:56:00,38.8,28.7,29.19,SE,135,0.0,0.0,67,0.00,,,0.00,WUHU21623XXSP,2013-10-22 11:56:00,
2013-10-22 07:01:00,38.8,28.7,29.19,SE,135,0.0,0.0,67,0.00,,,0.00,WUHU21623XXSP,2013-10-22 12:01:00,
2013-10-22 07:06:00,38.8,28.7,29.19,SE,135,0.0,0.0,67,0.00,,,0.00,WUHU21623XXSP,2013-10-22 12:06:00,
2013-10-22 07:11:00,38.8,29.1,29.18,SE,135,0.0,0.0,68,0.00,,,0.00,WUHU21623XXSP,2013-10-22 12:11:00,
2013-10-22 07:16:00,38.8,29.1,29.18,SE,135,0.0,0.0,68,0.00,,,0.00,WUHU21623XXSP,2013-10-22 12:16:00,
2013-10-22 07:21:00,38.8,29.5,29.18,SE,135,0.0,0.0,69,0.00,,,0.00,WUHU21623XXSP,2013-10-22 12:21:00,
2013-10-22 07:26:00,38.8,29.5,29.18,SE,135,0.0,0.0,69,0.00,,,0.00,WUHU21623XXSP,2013-10-22 12:26:00,
2013-10-22 07:31:00,38.8,29.5,29.18,SE,135,0.0,0.0,69,0.00,,,0.00,WUHU21623XXSP,2013-10-22 12:31:00,
2013-10-22 07:36:00,39.0,29.7,29.18,SE,135,0.0,0.0,69,0.00,,,0.00,WUHU21623XXSP,2013-10-22 12:36:00,
2013-10-22 07:41:00,39.0,30.0,29.18,SE,135,0.0,0.0,70,0.00,,,0.00,WUHU21623XXSP,2013-10-22 12:41:00,
2013-10-22 07:46:00,39.0,30.0,29.18,SE,135,0.0,0.0,70,0.00,,,0.00,WUHU21623XXSP,2013-10-22 12:46:00,
2013-10-22 07:51:00,39.0,30.0,29.18,SE,135,0.0,0.0,70,0.00,,,0.00,WUHU21623XXSP,2013-10-22 12:51:00,
2013-10-22 07:56:00,39.0,30.4,29.18,ENE,67,0.0,0.0,71,0.00,,,0.00,WUHU21623XXSP,2013-10-22 12:56:00,
2013-10-22 08:01:00,38.8,30.2,29.17,ENE,67,0.0,0.0,71,0.00,,,0.00,WUHU21623XXSP,2013-10-22 13:01:00,
2013-10-22 08:07:00,38.8,30.5,29.17,ENE,67,0.0,0.0,72,0.00,,,0.00,WUHU21623XXSP,2013-10-22 13:07:00,
2013-10-22 08:12:00,38.8,30.5,29.17,ENE,67,0.0,0.0,72,0.00,,,0.00,WUHU21623XXSP,2013-10-22 13:12:00,
2013-10-22 08:17:00,38.8,30.5,29.18,East,90,0.0,0.0,72,0.00,,,0.00,WUHU21623XXSP,2013-10-22 13:17:00,
2013-10-22 08:22:00,38.8,30.5,29.17,SE,135,1.3,1.3,72,0.00,,,0.00,WUHU21623XXSP,2013-10-22 13:22:00,
2013-10-22 08:27:00,39.0,30.7,29.17,SE,135,0.0,1.3,72,0.00,,,0.00,WUHU21623XXSP,2013-10-22 13:27:00,
2013-10-22 08:32:00,39.0,30.7,29.16,SE,135,0.0,1.3,72,0.03,,,0.03,WUHU21623XXSP,2013-10-22 13:32:00,
2013-10-22 08:37:00,39.0,31.0,29.16,ESE,112,2.9,2.9,73,0.03,,,0.03,WUHU21623XXSP,2013-10-22 13:37:00,
2013-10-22 08:42:00,39.0,31.0,29.16,SE,135,0.0,2.9,73,0.03,,,0.03,WUHU21623XXSP,2013-10-22 13:42:00,
2013-10-22 08:47:00,39.0,31.0,29.16,SE,135,0.0,0.0,73,0.03,,,0.03,WUHU21623XXSP,2013-10-22 13:47:00,
2013-10-22 08:52:00,39.4,31.2,29.15,SE,135,0.0,0.0,73,0.03,,,0.03,WUHU21623XXSP,2013-10-22 13:52:00,
2013-10-22 08:57:00,39.0,31.4,29.15,ENE,67,0.0,1.6,74,0.03,,,0.03,WUHU21623XXSP,2013-10-22 13:57:00,
2013-10-22 09:02:00,39.0,31.4,29.15,ENE,67,0.0,1.6,74,0.03,,,0.03,WUHU21623XXSP,2013-10-22 14:02:00,
2013-10-22 09:07:00,39.0,31.7,29.15,East,90,0.0,0.0,75,0.03,,,0.03,WUHU21623XXSP,2013-10-22 14:07:00,
2013-10-22 09:12:00,39.0,32.1,29.15,NE,45,0.0,0.0,76,0.03,,,0.03,WUHU21623XXSP,2013-10-22 14:12:00,
2013-10-22 09:17:00,39.0,32.1,29.15,NE,45,0.0,1.6,76,0.05,,,0.05,WUHU21623XXSP,2013-10-22 14:17:00,
2013-10-22 09:22:00,39.0,32.1,29.15,East,90,0.0,1.6,76,0.05,,,0.05,WUHU21623XXSP,2013-10-22 14:22:00,
2013-10-22 09:27:00,38.8,32.2,29.15,ENE,67,1.8,1.8,77,0.05,,,0.05,WUHU21623XXSP,2013-10-22 14:27:00,
2013-10-22 09:32:00,38.8,32.2,29.15,NE,45,0.0,2.0,77,0.03,,,0.05,WUHU21623XXSP,2013-10-22 14:32:00,
2013-10-22 09:37:00,38.8,32.2,29.15,NE,45,0.0,2.0,77,0.03,,,0.05,WUHU21623XXSP,2013-10-22 14:37:00,
2013-10-22 09:42:00,38.8,32.2,29.15,NE,45,0.0,0.0,78,0.03,,,0.05,WUHU21623XXSP,2013-10-22 14:42:00,
2013-10-22 09:47:00,38.8,32.6,29.15,NE,45,0.0,0.0,78,0.03,,,0.05,WUHU21623XXSP,2013-10-22 14:47:00,
2013-10-22 09:52:00,38.7,32.4,29.15,NE,45,0.0,0.0,78,0.03,,,0.05,WUHU21623XXSP,2013-10-22 14:52:00,
2013-10-22 09:57:00,38.5,32.2,29.15,NE,45,0.0,1.3,78,0.03,,,0.05,WUHU21623XXSP,2013-10-22 14:57:00,
2013-10-22 10:02:00,38.5,32.2,29.14,NE,45,1.1,1.3,79,0.05,,,0.08,WUHU21623XXSP,2013-10-22 15:02:00,
2013-10-22 10:07:00,38.5,32.6,29.15,SSE,157,0.0,1.1,79,0.05,,,0.08,WUHU21623XXSP,2013-10-22 15:07:00,
2013-10-22 10:12:00,38.5,32.6,29.15,ESE,112,0.0,1.1,79,0.05,,,0.11,WUHU21623XXSP,2013-10-22 15:12:00,
2013-10-22 10:17:00,38.5,32.6,29.15,NE,45,0.0,0.0,79,0.05,,,0.11,WUHU21623XXSP,2013-10-22 15:17:00,
2013-10-22 10:22:00,38.5,32.6,29.15,NE,45,1.1,1.1,79,0.05,,,0.11,WUHU21623XXSP,2013-10-22 15:22:00,
2013-10-22 10:27:00,38.5,32.6,29.15,NE,45,0.0,1.1,80,0.11,,,0.16,WUHU21623XXSP,2013-10-22 15:27:00,
2013-10-22 10:32:00,38.5,32.9,29.15,NE,45,0.0,0.9,80,0.11,,,0.16,WUHU21623XXSP,2013-10-22 15:32:00,
2013-10-22 10:37:00,38.5,32.9,29.14,NNE,22,0.0,2.5,80,0.11,,,0.16,WUHU21623XXSP,2013-10-22 15:37:00,
2013-10-22 10:42:00,38.5,32.9,29.14,NE,45,4.0,4.0,80,0.11,,,0.16,WUHU21623XXSP,2013-10-22 15:42:00,
2013-10-22 10:47:00,38.5,33.2,29.14,East,90,0.0,4.0,81,0.11,,,0.16,WUHU21623XXSP,2013-10-22 15:47:00,
2013-10-22 10:52:00,38.5,33.2,29.14,ENE,67,0.0,4.0,81,0.11,,,0.16,WUHU21623XXSP,2013-10-22 15:52:00,
2013-10-22 10:57:00,38.5,33.2,29.14,SE,135,0.0,1.3,81,0.08,,,0.16,WUHU21623XXSP,2013-10-22 15:57:00,
2013-10-22 11:02:00,38.5,33.2,29.14,ENE,67,2.0,2.0,81,0.08,,,0.16,WUHU21623XXSP,2013-10-22 16:02:00,
2013-10-22 11:07:00,38.5,33.2,29.14,NE,45,4.7,4.7,81,0.05,,,0.16,WUHU21623XXSP,2013-10-22 16:07:00,
2013-10-22 11:12:00,38.3,33.0,29.13,NE,45,2.0,4.7,81,0.05,,,0.16,WUHU21623XXSP,2013-10-22 16:12:00,
2013-10-22 11:17:00,38.1,33.0,29.13,NE,45,0.0,4.7,81,0.05,,,0.16,WUHU21623XXSP,2013-10-22 16:17:00,
2013-10-22 11:22:00,37.9,32.6,29.13,NE,45,3.4,3.4,81,0.00,,,0.16,WUHU21623XXSP,2013-10-22 16:22:00,
2013-10-22 11:27:00,37.8,32.8,29.13,NE,45,5.6,5.6,82,0.00,,,0.16,WUHU21623XXSP,2013-10-22 16:27:00,
2013-10-22 11:32:00,37.6,32.3,29.13,NE,45,5.6,5.6,81,0.00,,,0.16,WUHU21623XXSP,2013-10-22 16:32:00,
2013-10-22 11:37:00,37.6,32.3,29.13,NE,45,0.0,7.4,81,0.03,,,0.19,WUHU21623XXSP,2013-10-22 16:37:00,
2013-10-22 11:42:00,37.6,32.6,29.13,NE,45,3.1,7.4,82,0.03,,,0.19,WUHU21623XXSP,2013-10-22 16:42:00,
2013-10-22 11:47:00,37.4,32.4,29.12,NE,45,3.1,3.1,82,0.03,,,0.19,WUHU21623XXSP,2013-10-22 16:47:00,
2013-10-22 11:52:00,37.2,32.2,29.12,NE,45,2.5,3.1,82,0.03,,,0.19,WUHU21623XXSP,2013-10-22 16:52:00,
2013-10-22 11:57:00,37.2,32.2,29.12,NE,45,5.1,5.1,82,0.03,,,0.19,WUHU21623XXSP,2013-10-22 16:57:00,
2013-10-22 12:02:00,37.2,32.2,29.12,NE,45,5.8,5.8,82,0.03,,,0.19,WUHU21623XXSP,2013-10-22 17:02:00,
2013-10-22 12:07:00,37.2,32.5,29.12,NE,45,1.6,5.8,83,0.03,,,0.19,WUHU21623XXSP,2013-10-22 17:07:00,
2013-10-22 12:12:00,37.4,32.7,29.12,NE,45,3.1,5.8,83,0.03,,,0.19,WUHU21623XXSP,2013-10-22 17:12:00,
2013-10-22 12:17:00,37.6,32.7,29.12,NE,45,4.9,4.9,83,0.03,,,0.19,WUHU21623XXSP,2013-10-22 17:17:00,
2013-10-22 12:22:00,37.6,32.9,29.12,NE,45,5.4,5.4,83,0.03,,,0.19,WUHU21623XXSP,2013-10-22 17:22:00,
2013-10-22 12:27:00,37.4,32.7,29.11,NE,45,2.0,5.4,83,0.03,,,0.19,WUHU21623XXSP,2013-10-22 17:27:00,
2013-10-22 12:32:00,37.2,32.5,29.11,NE,45,0.0,5.4,83,0.00,,,0.19,WUHU21623XXSP,2013-10-22 17:32:00,
2013-10-22 12:37:00,37.2,32.5,29.11,ENE,67,3.4,5.4,83,0.00,,,0.19,WUHU21623XXSP,2013-10-22 17:37:00,
2013-10-22 12:42:00,37.2,32.5,29.11,NNE,22,2.2,3.4,83,0.00,,,0.19,WUHU21623XXSP,2013-10-22 17:42:00,
2013-10-22 12:47:00,37.2,32.5,29.11,NE,45,2.9,2.9,83,0.00,,,0.19,WUHU21623XXSP,2013-10-22 17:47:00,
2013-10-22 12:52:00,37.0,32.3,29.10,NE,45,5.4,5.4,83,0.00,,,0.19,WUHU21623XXSP,2013-10-22 17:52:00,
2013-10-22 12:57:00,36.9,32.1,29.10,ENE,67,0.0,6.3,83,0.03,,,0.21,WUHU21623XXSP,2013-10-22 17:57:00,
2013-10-22 13:02:00,36.7,32.0,29.10,NNE,22,0.0,6.3,83,0.03,,,0.21,WUHU21623XXSP,2013-10-22 18:02:00,
2013-10-22 13:07:00,36.7,32.0,29.10,NE,45,4.7,4.7,83,0.03,,,0.21,WUHU21623XXSP,2013-10-22 18:07:00,
2013-10-22 13:12:00,36.5,31.8,29.10,NE,45,0.0,5.6,83,0.03,,,0.21,WUHU21623XXSP,2013-10-22 18:12:00,
2013-10-22 13:17:00,36.5,31.8,29.10,NE,45,7.2,7.2,83,0.03,,,0.21,WUHU21623XXSP,2013-10-22 18:17:00,
2013-10-22 13:22:00,36.3,31.6,29.10,NE,45,4.0,7.2,83,0.03,,,0.21,WUHU21623XXSP,2013-10-22 18:22:00,
2013-10-22 13:27:00,36.3,31.6,29.10,NE,45,4.0,4.0,83,0.03,,,0.21,WUHU21623XXSP,2013-10-22 18:27:00,
2013-10-22 13:32:00,36.5,31.8,29.10,NNE,22,3.4,7.4,83,0.03,,,0.21,WUHU21623XXSP,2013-10-22 18:32:00,
2013-10-22 13:37:00,36.5,31.8,29.10,NE,45,5.6,7.4,83,0.03,,,0.21,WUHU21623XXSP,2013-10-22 18:37:00,
2013-10-22 13:42:00,36.5,31.6,29.10,NNE,22,2.9,6.7,83,0.03,,,0.21,WUHU21623XXSP,2013-10-22 18:42:00,
2013-10-22 13:47:00,36.5,31.8,29.10,NNE,22,2.9,5.6,83,0.03,,,0.21,WUHU21623XXSP,2013-10-22 18:47:00,
2013-10-22 13:52:00,36.5,31.8,29.10,NNE,22,2.9,2.9,83,0.03,,,0.21,WUHU21623XXSP,2013-10-22 18:52:00,
2013-10-22 13:57:00,36.3,31.8,29.10,NE,45,0.0,2.9,83,0.00,,,0.21,WUHU21623XXSP,2013-10-22 18:57:00,
2013-10-22 14:02:00,36.5,31.8,29.10,NE,45,0.9,0.9,83,0.00,,,0.21,WUHU21623XXSP,2013-10-22 19:02:00,
2013-10-22 14:07:00,36.5,31.8,29.09,NNE,22,2.9,2.9,83,0.00,,,0.21,WUHU21623XXSP,2013-10-22 19:07:00,
2013-10-22 14:12:00,36.5,31.9,29.10,NNE,22,2.9,2.9,84,0.00,,,0.21,WUHU21623XXSP,2013-10-22 19:12:00,
2013-10-22 14:17:00,36.3,31.9,29.10,NNE,22,4.9,4.9,84,0.00,,,0.21,WUHU21623XXSP,2013-10-22 19:17:00,
2013-10-22 14:22:00,36.3,31.9,29.10,NNE,22,2.7,4.9,84,0.00,,,0.21,WUHU21623XXSP,2013-10-22 19:22:00,
2013-10-22 14:27:00,36.3,31.9,29.10,NNE,22,5.1,5.8,84,0.00,,,0.21,WUHU21623XXSP,2013-10-22 19:27:00,
2013-10-22 14:32:00,36.1,31.4,29.10,NNE,22,0.0,5.8,83,0.00,,,0.21,WUHU21623XXSP,2013-10-22 19:32:00,
2013-10-22 14:37:00,36.1,31.4,29.10,North,0,7.8,7.8,84,0.00,,,0.21,WUHU21623XXSP,2013-10-22 19:37:00,
2013-10-22 14:42:00,36.1,31.4,29.09,ENE,67,0.0,7.8,83,0.00,,,0.21,WUHU21623XXSP,2013-10-22 19:42:00,
2013-10-22 14:47:00,36.1,31.4,29.10,NNE,22,0.0,0.0,83,0.00,,,0.21,WUHU21623XXSP,2013-10-22 19:47:00,
2013-10-22 14:52:00,36.1,31.7,29.10,NE,45,4.7,4.7,84,0.00,,,0.21,WUHU21623XXSP,2013-10-22 19:52:00,
2013-10-22 14:57:00,36.1,31.7,29.10,NE,45,2.5,4.7,84,0.00,,,0.21,WUHU21623XXSP,2013-10-22 19:57:00,
2013-10-22 15:02:00,36.1,31.9,29.10,NNE,22,4.7,4.7,84,0.00,,,0.21,WUHU21623XXSP,2013-10-22 20:02:00,
2013-10-22 15:07:00,36.1,31.9,29.10,NNE,22,4.7,4.7,84,0.00,,,0.21,WUHU21623XXSP,2013-10-22 20:07:00,
2013-10-22 15:12:00,36.3,31.9,29.10,NNE,22,5.6,5.6,84,0.00,,,0.21,WUHU21623XXSP,2013-10-22 20:12:00,
2013-10-22 15:17:00,36.1,31.7,29.10,NE,45,5.1,5.6,84,0.00,,,0.21,WUHU21623XXSP,2013-10-22 20:17:00,
2013-10-22 15:22:00,36.1,31.7,29.11,NE,45,3.6,5.1,84,0.00,,,0.21,WUHU21623XXSP,2013-10-22 20:22:00,
2013-10-22 15:27:00,36.1,31.7,29.11,NNE,22,5.4,5.4,84,0.00,,,0.21,WUHU21623XXSP,2013-10-22 20:27:00,
2013-10-22 15:32:00,36.3,31.9,29.11,NE,45,0.0,5.4,84,0.00,,,0.21,WUHU21623XXSP,2013-10-22 20:32:00,
2013-10-22 15:37:00,36.3,31.7,29.12,NNE,22,3.8,3.8,84,0.00,,,0.21,WUHU21623XXSP,2013-10-22 20:37:00,
2013-10-22 15:42:00,36.3,31.9,29.12,NNE,22,5.1,7.6,84,0.00,,,0.21,WUHU21623XXSP,2013-10-22 20:42:00,
2013-10-22 15:47:00,36.1,31.7,29.12,NNE,22,4.7,7.6,84,0.00,,,0.21,WUHU21623XXSP,2013-10-22 20:47:00,
2013-10-22 15:52:00,36.3,31.9,29.12,NE,45,4.5,4.7,84,0.00,,,0.21,WUHU21623XXSP,2013-10-22 20:52:00,
2013-10-22 15:57:00,36.3,31.9,29.12,NNE,22,9.4,9.4,84,0.00,,,0.21,WUHU21623XXSP,2013-10-22 20:57:00,
2013-10-22 16:02:00,36.1,31.7,29.13,NNE,22,9.4,9.4,84,0.00,,,0.21,WUHU21623XXSP,2013-10-22 21:02:00,
2013-10-22 16:07:00,36.1,31.7,29.13,NE,45,4.9,9.4,84,0.00,,,0.21,WUHU21623XXSP,2013-10-22 21:07:00,
2013-10-22 16:12:00,36.3,31.9,29.13,NNE,22,3.6,4.9,84,0.00,,,0.21,WUHU21623XXSP,2013-10-22 21:12:00,
2013-10-22 16:17:00,36.3,31.9,29.14,NNE,22,5.1,5.1,84,0.00,,,0.21,WUHU21623XXSP,2013-10-22 21:17:00,
2013-10-22 16:22:00,36.3,31.9,29.14,NNE,22,2.7,5.1,84,0.00,,,0.21,WUHU21623XXSP,2013-10-22 21:22:00,
2013-10-22 16:27:00,36.5,32.1,29.14,NNE,22,3.1,4.9,84,0.00,,,0.21,WUHU21623XXSP,2013-10-22 21:27:00,
2013-10-22 16:32:00,36.5,32.1,29.15,NNE,22,3.6,3.6,84,0.00,,,0.21,WUHU21623XXSP,2013-10-22 21:32:00,
2013-10-22 16:37:00,36.5,32.1,29.14,NNE,22,1.6,6.9,84,0.00,,,0.21,WUHU21623XXSP,2013-10-22 21:37:00,
2013-10-22 16:42:00,36.5,32.1,29.14,NNE,22,3.6,6.9,84,0.00,,,0.21,WUHU21623XXSP,2013-10-22 21:42:00,
2013-10-22 16:47:00,36.5,32.1,29.14,NNE,22,6.9,6.9,84,0.00,,,0.21,WUHU21623XXSP,2013-10-22 21:47:00,
2013-10-22 16:52:00,36.5,32.1,29.14,NNE,22,6.9,6.9,84,0.00,,,0.21,WUHU21623XXSP,2013-10-22 21:52:00,
2013-10-22 16:57:00,36.3,32.1,29.15,NNE,22,6.9,6.9,84,0.00,,,0.21,WUHU21623XXSP,2013-10-22 21:57:00,
2013-10-22 17:02:00,36.7,32.3,29.14,North,0,6.3,6.9,84,0.00,,,0.21,WUHU21623XXSP,2013-10-22 22:02:00,
2013-10-22 17:07:00,36.5,32.1,29.15,North,0,6.3,6.9,84,0.00,,,0.21,WUHU21623XXSP,2013-10-22 22:07:00,
2013-10-22 17:12:00,36.5,32.1,29.15,NNE,22,5.1,6.3,84,0.00,,,0.21,WUHU21623XXSP,2013-10-22 22:12:00,
2013-10-22 17:17:00,36.7,32.3,29.15,NNE,22,2.7,5.1,84,0.00,,,0.21,WUHU21623XXSP,2013-10-22 22:17:00,
2013-10-22 17:22:00,36.7,32.3,29.16,NNE,22,0.0,4.3,84,0.00,,,0.21,WUHU21623XXSP,2013-10-22 22:22:00,
2013-10-22 17:27:00,36.9,32.4,29.16,NNE,22,4.9,4.9,84,0.00,,,0.21,WUHU21623XXSP,2013-10-22 22:27:00,
2013-10-22 17:32:00,37.0,32.6,29.16,NNE,22,5.4,5.4,84,0.00,,,0.21,WUHU21623XXSP,2013-10-22 22:32:00,
2013-10-22 17:37:00,37.0,32.6,29.16,NNE,22,2.0,5.4,84,0.00,,,0.21,WUHU21623XXSP,2013-10-22 22:37:00,
2013-10-22 17:42:00,37.0,32.6,29.17,NNE,22,4.9,5.4,84,0.00,,,0.21,WUHU21623XXSP,2013-10-22 22:42:00,
2013-10-22 17:47:00,37.0,32.6,29.17,NNE,22,4.9,4.9,84,0.00,,,0.21,WUHU21623XXSP,2013-10-22 22:47:00,
2013-10-22 17:52:00,37.0,32.6,29.17,NNE,22,4.9,4.9,84,0.00,,,0.21,WUHU21623XXSP,2013-10-22 22:52:00,
2013-10-22 17:57:00,37.2,32.6,29.17,NNE,22,2.2,4.9,84,0.00,,,0.21,WUHU21623XXSP,2013-10-22 22:57:00,
2013-10-22 18:02:00,37.2,32.8,29.17,NE,45,1.6,2.2,84,0.00,,,0.21,WUHU21623XXSP,2013-10-22 23:02:00,
2013-10-22 18:07:00,37.2,32.8,29.17,NE,45,3.8,3.8,84,0.00,,,0.21,WUHU21623XXSP,2013-10-22 23:07:00,
2013-10-22 18:12:00,37.2,32.8,29.17,NE,45,0.0,3.8,84,0.00,,,0.21,WUHU21623XXSP,2013-10-22 23:12:00,
2013-10-22 18:17:00,37.2,32.8,29.17,NE,45,1.1,1.1,84,0.00,,,0.21,WUHU21623XXSP,2013-10-22 23:17:00,
2013-10-22 18:22:00,37.6,33.2,29.18,NE,45,0.0,1.1,84,0.00,,,0.21,WUHU21623XXSP,2013-10-22 23:22:00,
2013-10-22 18:27:00,37.6,33.2,29.18,NNE,22,0.0,0.0,84,0.03,,,0.24,WUHU21623XXSP,2013-10-22 23:27:00,
2013-10-22 18:32:00,37.8,33.3,29.18,North,0,0.0,0.0,84,0.03,,,0.24,WUHU21623XXSP,2013-10-22 23:32:00,
2013-10-22 18:37:00,37.8,33.0,29.18,North,0,0.0,0.0,83,0.03,,,0.24,WUHU21623XXSP,2013-10-22 23:37:00,
2013-10-22 18:42:00,37.6,32.9,29.18,NNE,22,0.0,0.0,83,0.03,,,0.24,WUHU21623XXSP,2013-10-22 23:42:00,
2013-10-22 18:47:00,37.6,32.9,29.18,NNE,22,1.8,3.4,83,0.03,,,0.24,WUHU21623XXSP,2013-10-22 23:47:00,
2013-10-22 18:52:00,37.8,33.0,29.19,NNE,22,2.0,3.4,83,0.03,,,0.24,WUHU21623XXSP,2013-10-22 23:52:00,
2013-10-22 18:57:00,37.8,33.0,29.19,NNE,22,0.0,3.1,83,0.03,,,0.24,WUHU21623XXSP,2013-10-22 23:57:00,
2013-10-22 19:02:00,37.8,33.0,29.19,NNE,22,6.3,6.3,83,0.03,,,0.24,WUHU21623XXSP,2013-10-23 00:02:00,
2013-10-22 19:07:00,37.8,33.0,29.19,NNE,22,0.0,6.3,83,0.03,,,0.24,WUHU21623XXSP,2013-10-23 00:07:00,
2013-10-22 19:12:00,37.9,33.2,29.19,NNE,22,0.0,1.6,83,0.03,,,0.24,WUHU21623XXSP,2013-10-23 00:12:00,
2013-10-22 19:17:00,37.9,33.2,29.19,NNE,22,0.0,1.6,83,0.03,,,0.24,WUHU21623XXSP,2013-10-23 00:17:00,
2013-10-22 19:22:00,37.9,33.2,29.19,NNE,22,1.1,1.1,83,0.00,,,0.24,WUHU21623XXSP,2013-10-23 00:22:00,
2013-10-22 19:27:00,37.9,33.2,29.20,NNE,22,0.0,1.1,83,0.00,,,0.24,WUHU21623XXSP,2013-10-23 00:27:00,
2013-10-22 19:32:00,37.9,33.2,29.20,NE,45,0.0,1.1,83,0.00,,,0.24,WUHU21623XXSP,2013-10-23 00:32:00,
2013-10-22 19:37:00,38.1,33.4,29.20,NNE,22,0.0,0.0,83,0.00,,,0.24,WUHU21623XXSP,2013-10-23 00:37:00,
2013-10-22 19:42:00,38.1,33.4,29.20,NNE,22,0.9,0.9,83,0.00,,,0.24,WUHU21623XXSP,2013-10-23 00:42:00,
2013-10-22 19:47:00,38.3,33.6,29.20,NNE,22,0.0,5.8,83,0.00,,,0.24,WUHU21623XXSP,2013-10-23 00:47:00,
2013-10-22 19:52:00,38.5,33.8,29.21,NNE,22,0.7,5.8,83,0.00,,,0.24,WUHU21623XXSP,2013-10-23 00:52:00,
2013-10-22 19:57:00,38.5,33.8,29.21,NNE,22,0.0,0.7,83,0.00,,,0.24,WUHU21623XXSP,2013-10-23 00:57:00,
2013-10-22 20:02:00,38.8,34.1,29.21,NNE,22,0.0,0.7,83,0.00,,,0.24,WUHU21623XXSP,2013-10-23 01:02:00,
2013-10-22 20:07:00,38.8,34.1,29.21,NNE,22,0.0,0.0,83,0.00,,,0.24,WUHU21623XXSP,2013-10-23 01:07:00,
2013-10-22 20:12:00,38.8,34.1,29.21,NNE,22,0.0,0.0,83,0.00,,,0.24,WUHU21623XXSP,2013-10-23 01:12:00,
2013-10-22 20:17:00,38.8,33.8,29.21,NNE,22,0.0,0.0,82,0.00,,,0.24,WUHU21623XXSP,2013-10-23 01:17:00,
2013-10-22 20:22:00,38.8,33.8,29.21,NNW,337,0.0,0.0,82,0.00,,,0.24,WUHU21623XXSP,2013-10-23 01:22:00,
2013-10-22 20:27:00,38.8,33.8,29.21,NNW,337,0.0,0.0,82,0.00,,,0.24,WUHU21623XXSP,2013-10-23 01:27:00,
2013-10-22 20:32:00,38.8,33.8,29.21,NNW,337,0.0,0.0,82,0.00,,,0.24,WUHU21623XXSP,2013-10-23 01:32:00,
2013-10-22 20:37:00,38.8,33.8,29.20,NNW,337,0.0,0.0,82,0.00,,,0.24,WUHU21623XXSP,2013-10-23 01:37:00,
2013-10-22 20:42:00,38.8,33.8,29.21,NNW,337,0.0,0.0,82,0.00,,,0.24,WUHU21623XXSP,2013-10-23 01:42:00,
2013-10-22 20:47:00,38.7,33.7,29.21,NNW,337,0.0,0.0,82,0.00,,,0.24,WUHU21623XXSP,2013-10-23 01:47:00,
2013-10-22 20:52:00,38.5,33.5,29.21,NNW,337,0.0,0.0,82,0.00,,,0.24,WUHU21623XXSP,2013-10-23 01:52:00,
2013-10-22 20:57:00,38.5,33.5,29.21,NNW,337,0.0,0.0,82,0.00,,,0.24,WUHU21623XXSP,2013-10-23 01:57:00,
2013-10-22 21:02:00,38.5,33.5,29.21,NNW,337,0.0,0.0,82,0.00,,,0.24,WUHU21623XXSP,2013-10-23 02:02:00,
2013-10-22 21:07:00,38.5,33.5,29.21,NNW,337,0.0,0.0,82,0.00,,,0.24,WUHU21623XXSP,2013-10-23 02:07:00,
2013-10-22 21:12:00,38.5,33.5,29.21,NNW,337,0.0,0.0,82,0.00,,,0.24,WUHU21623XXSP,2013-10-23 02:12:00,
2013-10-22 21:17:00,38.5,33.5,29.21,NNW,337,0.0,0.0,82,0.00,,,0.24,WUHU21623XXSP,2013-10-23 02:17:00,
2013-10-22 21:22:00,38.5,33.5,29.21,NNW,337,0.0,0.0,82,0.00,,,0.24,WUHU21623XXSP,2013-10-23 02:22:00,
2013-10-22 21:27:00,38.5,33.5,29.21,NNW,337,0.0,0.0,82,0.00,,,0.24,WUHU21623XXSP,2013-10-23 02:27:00,
2013-10-22 21:32:00,38.5,33.5,29.21,NNW,337,0.0,0.0,82,0.00,,,0.24,WUHU21623XXSP,2013-10-23 02:32:00,
2013-10-22 21:37:00,38.5,33.5,29.21,NW,315,0.0,0.0,82,0.00,,,0.24,WUHU21623XXSP,2013-10-23 02:37:00,
2013-10-22 21:42:00,38.5,33.5,29.21,West,270,0.0,0.0,82,0.00,,,0.24,WUHU21623XXSP,2013-10-23 02:42:00,
2013-10-22 21:47:00,38.5,33.5,29.21,West,270,0.0,0.0,82,0.00,,,0.24,WUHU21623XXSP,2013-10-23 02:47:00,
2013-10-22 21:52:00,38.3,33.3,29.21,West,270,0.0,0.0,82,0.00,,,0.24,WUHU21623XXSP,2013-10-23 02:52:00,
2013-10-22 21:57:00,38.3,33.3,29.21,West,270,0.0,0.0,82,0.00,,,0.24,WUHU21623XXSP,2013-10-23 02:57:00,
2013-10-22 22:02:00,38.3,33.3,29.22,West,270,0.0,0.0,82,0.00,,,0.24,WUHU21623XXSP,2013-10-23 03:02:00,
2013-10-22 22:07:00,38.3,33.6,29.22,West,270,0.0,0.0,83,0.00,,,0.24,WUHU21623XXSP,2013-10-23 03:07:00,
2013-10-22 22:12:00,38.3,33.6,29.22,West,270,0.0,0.0,83,0.00,,,0.24,WUHU21623XXSP,2013-10-23 03:12:00,
2013-10-22 22:17:00,38.3,33.6,29.22,West,270,0.0,0.0,83,0.00,,,0.24,WUHU21623XXSP,2013-10-23 03:17:00,
2013-10-22 22:22:00,38.3,33.6,29.22,West,270,0.0,0.0,83,0.00,,,0.24,WUHU21623XXSP,2013-10-23 03:22:00,
2013-10-22 22:27:00,38.5,33.6,29.22,West,270,0.0,0.0,83,0.00,,,0.24,WUHU21623XXSP,2013-10-23 03:27:00,
2013-10-22 22:32:00,38.5,33.8,29.22,West,270,0.0,0.0,83,0.00,,,0.24,WUHU21623XXSP,2013-10-23 03:32:00,
2013-10-22 22:37:00,38.5,33.8,29.22,West,270,0.0,0.0,83,0.00,,,0.24,WUHU21623XXSP,2013-10-23 03:37:00,
2013-10-22 22:42:00,38.5,33.8,29.22,West,270,0.0,2.9,83,0.00,,,0.24,WUHU21623XXSP,2013-10-23 03:42:00,
2013-10-22 22:47:00,38.5,33.8,29.22,West,270,0.0,2.9,83,0.00,,,0.24,WUHU21623XXSP,2013-10-23 03:47:00,
2013-10-22 22:57:00,38.5,33.8,29.22,West,270,0.0,0.0,83,0.00,,,0.24,WUHU21623XXSP,2013-10-23 03:57:00,
2013-10-22 23:57:00,38.5,33.2,29.21,ENE,68,0.0,0.0,81,0.00,,,0.24,WUHU21623XXSP,2013-10-23 04:57:00,